createdAt,value
2023-03-15T00:02:08.671Z,100.00
2023-03-15T00:07:11.456Z,100.00
2023-03-15T00:12:14.153Z,100.00
2023-03-15T00:17:17.257Z,100.00
2023-03-15T00:22:20.009Z,100.00
2023-03-15T00:27:22.833Z,100.00
2023-03-15T00:32:25.653Z,100.00
2023-03-15T00:37:28.454Z,100.00
2023-03-15T00:42:31.190Z,100.00
2023-03-15T00:47:33.952Z,100.00
2023-03-15T00:52:37.805Z,100.00
2023-03-15T00:57:42.295Z,100.00
2023-03-15T01:02:45.577Z,100.00
2023-03-15T01:07:49.279Z,100.00
2023-03-15T01:12:51.972Z,100.00
2023-03-15T01:17:56.866Z,100.00
2023-03-15T01:22:59.593Z,100.00
2023-03-15T01:28:02.344Z,100.00
2023-03-15T01:33:05.264Z,100.00
2023-03-15T01:38:08.042Z,100.00
2023-03-15T01:43:21.993Z,100.00
2023-03-15T01:49:00.645Z,100.00
2023-03-15T01:54:29.978Z,100.00
2023-03-15T01:59:43.221Z,100.00
2023-03-15T02:04:55.443Z,100.00
2023-03-15T02:10:11.140Z,100.00
2023-03-15T02:15:15.791Z,100.00
2023-03-15T02:20:27.317Z,100.00
2023-03-15T02:25:38.884Z,100.00
2023-03-15T02:30:42.796Z,100.00
2023-03-15T02:35:45.674Z,100.00
2023-03-15T02:40:49.219Z,100.00
2023-03-15T02:45:52.177Z,100.00
2023-03-15T02:50:54.956Z,100.00
2023-03-15T02:55:58.564Z,100.00
2023-03-15T03:01:01.298Z,100.00
2023-03-15T03:06:04.148Z,100.00
2023-03-15T03:11:07.903Z,100.00
2023-03-15T03:16:11.215Z,100.00
2023-03-15T03:21:14.932Z,100.00
2023-03-15T03:26:19.359Z,100.00
2023-03-15T03:31:25.210Z,100.00
2023-03-15T03:36:27.995Z,100.00
2023-03-15T03:41:30.689Z,100.00
2023-03-15T03:46:33.648Z,100.00
2023-03-15T03:51:37.882Z,100.00
2023-03-15T03:56:40.759Z,100.00
2023-03-15T04:01:43.789Z,100.00
2023-03-15T04:06:46.490Z,100.00
2023-03-15T04:11:49.190Z,100.00
2023-03-15T04:16:51.871Z,100.00
2023-03-15T04:21:54.588Z,100.00
2023-03-15T04:26:58.010Z,100.00
2023-03-15T04:32:02.049Z,100.00
2023-03-15T04:37:05.927Z,100.00
2023-03-15T04:42:09.037Z,100.00
2023-03-15T04:47:11.875Z,100.00
2023-03-15T04:52:14.624Z,100.00
2023-03-15T04:57:17.375Z,100.00
2023-03-15T05:02:20.137Z,100.00
2023-03-15T05:07:22.945Z,100.00
2023-03-15T05:12:25.681Z,100.00
2023-03-15T05:17:28.401Z,100.00
2023-03-15T05:22:31.182Z,100.00
2023-03-15T05:27:34.704Z,100.00
2023-03-15T05:32:39.873Z,100.00
2023-03-15T05:37:42.795Z,100.00
2023-03-15T05:42:45.660Z,100.00
2023-03-15T05:47:48.456Z,100.00
2023-03-15T05:52:52.180Z,100.00
2023-03-15T05:57:55.083Z,100.00
2023-03-15T06:02:57.827Z,100.00
2023-03-15T06:08:00.672Z,100.00
2023-03-15T06:13:03.588Z,100.00
2023-03-15T06:18:06.490Z,100.00
2023-03-15T06:23:09.395Z,100.00
2023-03-15T06:28:12.092Z,100.00
2023-03-15T06:33:14.866Z,100.00
2023-03-15T06:38:17.635Z,100.00
2023-03-15T06:43:20.552Z,100.00
2023-03-15T06:48:23.293Z,100.00
2023-03-15T06:53:27.460Z,100.00
2023-03-15T06:58:31.025Z,100.00
2023-03-15T07:03:35.876Z,100.00
2023-03-15T07:08:39.326Z,100.00
2023-03-15T07:13:42.136Z,100.00
2023-03-15T07:18:44.874Z,100.00
2023-03-15T07:23:47.684Z,100.00
2023-03-15T07:28:50.800Z,100.00
2023-03-15T07:33:53.561Z,100.00
2023-03-15T07:38:56.599Z,100.00
2023-03-15T07:44:01.547Z,100.00
2023-03-15T07:49:18.165Z,100.00
2023-03-15T07:54:23.068Z,100.00
2023-03-15T07:59:25.870Z,100.00
2023-03-15T08:04:28.750Z,100.00
2023-03-15T08:09:34.661Z,100.00
2023-03-15T08:14:37.769Z,100.00
2023-03-15T08:19:41.063Z,100.00
2023-03-15T08:24:45.735Z,100.00
2023-03-15T08:29:48.709Z,100.00
2023-03-15T08:34:53.292Z,100.00
2023-03-15T08:39:58.031Z,100.00
2023-03-15T08:45:02.184Z,100.00
2023-03-15T08:50:08.275Z,100.00
2023-03-15T08:55:14.420Z,100.00
2023-03-15T09:00:20.902Z,100.00
2023-03-15T09:05:26.836Z,100.00
2023-03-15T09:10:29.576Z,100.00
2023-03-15T09:15:32.308Z,100.00
2023-03-15T09:20:35.139Z,100.00
2023-03-15T09:25:37.983Z,100.00
2023-03-15T09:30:42.409Z,100.00
2023-03-15T09:35:45.216Z,100.00
2023-03-15T09:40:49.030Z,97.12
2023-03-15T09:46:33.785Z,97.00
2023-03-15T09:51:43.306Z,95.84
2023-03-15T09:56:56.857Z,98.28
2023-03-15T10:02:08.926Z,98.67
2023-03-15T10:07:16.627Z,98.24
2023-03-15T10:12:41.340Z,98.01
2023-03-15T10:17:59.232Z,97.01
2023-03-15T10:23:20.546Z,96.53
2023-03-15T10:28:31.219Z,96.46
2023-03-15T10:33:37.549Z,93.01
2023-03-15T10:38:41.907Z,89.82
2023-03-15T10:43:58.126Z,91.39
2023-03-15T10:49:08.564Z,95.74
2023-03-15T10:54:25.035Z,94.19
2023-03-15T10:59:30.478Z,92.79
2023-03-15T11:04:34.458Z,92.59
2023-03-15T11:09:43.503Z,94.21
2023-03-15T11:14:48.807Z,93.03
2023-03-15T11:19:57.536Z,92.86
2023-03-15T11:25:00.330Z,92.75
2023-03-15T11:30:04.760Z,95.68
2023-03-15T11:35:17.358Z,93.03
2023-03-15T11:40:33.797Z,91.08
2023-03-15T11:45:46.288Z,88.79
2023-03-15T11:50:53.791Z,88.53
2023-03-15T11:55:58.633Z,88.82
2023-03-15T12:01:04.530Z,87.86
2023-03-15T12:06:10.461Z,87.59
2023-03-15T12:11:33.142Z,87.39
2023-03-15T12:16:45.037Z,88.03
2023-03-15T12:21:53.453Z,89.37
2023-03-15T12:27:05.776Z,90.45
2023-03-15T12:32:17.607Z,93.32
2023-03-15T12:37:22.442Z,96.09
2023-03-15T12:42:34.037Z,97.74
2023-03-15T12:47:51.811Z,98.53
2023-03-15T12:53:00.672Z,98.85
2023-03-15T12:58:04.838Z,98.45
2023-03-15T13:03:16.759Z,99.45
2023-03-15T13:08:37.093Z,100.00
2023-03-15T13:13:54.902Z,100.00
2023-03-15T13:19:18.936Z,100.00
2023-03-15T13:24:30.838Z,100.00
2023-03-15T13:29:33.727Z,100.00
2023-03-15T13:34:36.543Z,100.00
2023-03-15T13:39:39.348Z,100.00
2023-03-15T13:44:42.054Z,100.00
2023-03-15T13:49:44.755Z,100.00
2023-03-15T13:54:47.684Z,100.00
2023-03-15T13:59:55.601Z,100.00
2023-03-15T14:05:03.854Z,100.00
2023-03-15T14:10:18.486Z,100.00
2023-03-15T14:15:36.340Z,100.00
2023-03-15T14:20:43.785Z,100.00
2023-03-15T14:26:20.490Z,100.00
2023-03-15T14:31:34.696Z,100.00
2023-03-15T14:36:44.010Z,100.00
2023-03-15T14:41:46.671Z,100.00
2023-03-15T14:46:49.720Z,100.00
2023-03-15T14:52:05.248Z,100.00
2023-03-15T14:57:09.227Z,100.00
2023-03-15T15:02:20.879Z,100.00
2023-03-15T15:07:24.122Z,100.00
2023-03-15T15:12:26.785Z,100.00
2023-03-15T15:17:29.593Z,99.28
2023-03-15T15:22:32.568Z,99.24
2023-03-15T15:27:35.308Z,99.99
2023-03-15T15:32:38.100Z,100.00
2023-03-15T15:37:43.610Z,100.00
2023-03-15T15:42:47.502Z,100.00
2023-03-15T15:47:51.136Z,100.00
2023-03-15T15:52:54.183Z,100.00
2023-03-15T15:57:57.395Z,100.00
2023-03-15T16:03:00.140Z,100.00
2023-03-15T16:08:05.048Z,100.00
2023-03-15T16:13:11.297Z,100.00
2023-03-15T16:18:14.308Z,100.00
2023-03-15T16:23:24.508Z,100.00
2023-03-15T16:28:28.208Z,100.00
2023-03-15T16:33:34.665Z,100.00
2023-03-15T16:38:37.386Z,100.00
2023-03-15T16:43:40.088Z,100.00
2023-03-15T16:48:43.454Z,100.00
2023-03-15T16:53:46.194Z,100.00
2023-03-15T16:58:52.072Z,100.00
2023-03-15T17:03:55.778Z,100.00
2023-03-15T17:09:03.343Z,100.00
2023-03-15T17:14:10.857Z,100.00
2023-03-15T17:19:15.183Z,100.00
2023-03-15T17:24:18.167Z,100.00
2023-03-15T17:29:21.303Z,100.00
2023-03-15T17:34:23.964Z,100.00
2023-03-15T17:39:27.505Z,100.00
2023-03-15T17:44:30.194Z,100.00
2023-03-15T17:49:32.853Z,100.00
2023-03-15T17:54:35.864Z,100.00
2023-03-15T17:59:38.930Z,100.00
2023-03-15T18:04:42.039Z,100.00
2023-03-15T18:09:44.676Z,100.00
2023-03-15T18:14:47.434Z,100.00
2023-03-15T18:19:50.240Z,100.00
2023-03-15T18:24:53.039Z,100.00
2023-03-15T18:29:55.857Z,100.00
2023-03-15T18:34:58.518Z,100.00
2023-03-15T18:40:01.335Z,100.00
2023-03-15T18:45:04.832Z,100.00
2023-03-15T18:50:10.993Z,100.00
2023-03-15T18:55:16.418Z,100.00
2023-03-15T19:00:26.782Z,100.00
2023-03-15T19:05:34.204Z,100.00
2023-03-15T19:10:36.928Z,100.00
2023-03-15T19:15:39.887Z,100.00
2023-03-15T19:20:42.685Z,100.00
2023-03-15T19:25:46.730Z,100.00
2023-03-15T19:30:49.738Z,100.00
2023-03-15T19:35:53.073Z,100.00
2023-03-15T19:40:58.562Z,100.00
2023-03-15T19:46:06.617Z,100.00
2023-03-15T19:51:09.396Z,100.00
2023-03-15T19:56:12.112Z,100.00
2023-03-15T20:01:16.217Z,100.00
2023-03-15T20:06:19.392Z,100.00
2023-03-15T20:11:25.343Z,100.00
2023-03-15T20:16:28.396Z,100.00
2023-03-15T20:21:31.150Z,100.00
2023-03-15T20:26:33.834Z,100.00
2023-03-15T20:31:36.680Z,100.00
2023-03-15T20:36:39.658Z,100.00
2023-03-15T20:41:42.352Z,100.00
2023-03-15T20:46:45.444Z,100.00
2023-03-15T20:51:48.371Z,100.00
2023-03-15T20:56:51.783Z,100.00
2023-03-15T21:01:54.501Z,100.00
2023-03-15T21:07:04.005Z,100.00
2023-03-15T21:12:08.065Z,100.00
2023-03-15T21:17:11.279Z,100.00
2023-03-15T21:22:13.884Z,100.00
2023-03-15T21:27:16.871Z,100.00
2023-03-15T21:32:20.062Z,100.00
2023-03-15T21:37:22.775Z,100.00
2023-03-15T21:42:25.681Z,100.00
2023-03-15T21:47:28.391Z,100.00
2023-03-15T21:52:31.306Z,100.00
2023-03-15T21:57:34.194Z,100.00
2023-03-15T22:02:37.073Z,100.00
2023-03-15T22:07:41.095Z,100.00
2023-03-15T22:12:43.863Z,100.00
2023-03-15T22:17:46.640Z,100.00
2023-03-15T22:22:49.423Z,100.00
2023-03-15T22:27:52.326Z,100.00
2023-03-15T22:32:55.127Z,100.00
2023-03-15T22:37:57.972Z,100.00
2023-03-15T22:43:00.851Z,100.00
2023-03-15T22:48:03.829Z,100.00
2023-03-15T22:53:06.646Z,100.00
2023-03-15T22:58:09.346Z,100.00
2023-03-15T23:03:12.377Z,100.00
2023-03-15T23:08:15.050Z,100.00
2023-03-15T23:13:17.753Z,100.00
2023-03-15T23:18:22.287Z,100.00
2023-03-15T23:23:27.248Z,100.00
2023-03-15T23:28:29.939Z,100.00
2023-03-15T23:33:35.385Z,100.00
2023-03-15T23:38:38.213Z,100.00
2023-03-15T23:43:41.656Z,100.00
2023-03-15T23:48:44.535Z,100.00
2023-03-15T23:53:47.215Z,100.00
2023-03-15T23:58:50.107Z,100.00
